KMDH/MDH METAR and TAF weather

Enter ICAO airport designator
Station Type Date Time Source
KMDH METAR 2022/06/30 11:52 UTC NOAA

KMDH 301152Z 00000KT 9SM CLR 17/17 A3014 RMK AO2 SLP202 T01720167 10172 20144 56005


Station Type Date Time Source
KMDH Decoded METAR 2022/06/30 11:52 UTC NOAA

SOUTHERN ILLINOIS AIRPORT, IL, United States (KMDH) 37-47N 089-15W 130M
Jun 30, 2022 - 07:52 AM EDT / 2022.06.30 1152 UTC
Wind: Calm:0
Visibility: 9 mile(s):0
Sky conditions: clear
Temperature: 63.0 F (17.2 C)
Dew Point: 62.1 F (16.7 C)
Relative Humidity: 96%
Pressure (altimeter): 30.14 in. Hg (1020 hPa)
Pressure tendency: 0.01 inches (0.5 hPa) lower than three hours ago
ob: KMDH 301152Z 00000KT 9SM CLR 17/17 A3014 RMK AO2 SLP202 T01720167 10172 20144 56005
cycle: 12

Station Type Date Time Source
KMDH TAF UTC NOAA

Error!

Example: see airport list